Portada
METAR-TAF:

METAR-TAF

Aeropuertos :

Aeropuerto de Vigo

Vigo, España

latitud: 42-13N, longitud: 008-38W, altitud: 264 m

Observación

El informe se hizo hace 37 minutos, a las 22:30 UTC
Viento 5 kt del sur-suroeste
Temperatura 7°C
Humedad 93%
Presión 1007 hPa
Visibilidad 10 km o más
Cielo nuboso a una altura de 3900 ft

METAR: LEVX 312230Z 21005KT 9999 BKN039 07/06 Q1007 NOSIG

Hora: 01:07 (23:07 UTC)

Pronóstico

El informe se hizo hace 6 horas y 7 minutos, a las 17:00 UTC
Pronóstico válido del 31 a las 18 UTC al 01 a las 18 UTC
Viento 9 kt del este-noreste
Visibilidad 10 km o más
Nubes dispersas a una altura de 4000 ft
Temporalmente
del 01 a las 00 UTC al 01 a las 18 UTC
Visibilidad: 3000 m
Cielo nuboso a una altura de 1000 ft
Nubes dispersas a una altura de 2000 ft, Cumulus congestus.
lluvia

TAF: LEVX 311700Z 3118/0118 07009KT 9999 SCT040 TX12/0115Z TN06/0106Z TEMPO 0100/0118 3000 RA BKN010 SCT020TCU

Observaciones y pronósticos meteorológicos de más de 4000 aeropuertos (mensajes METAR y TAF).

Los puntos amarillos y rojos representan las estaciones disponibles.

Ponga el ratón en el punto deseado para ver el nombre de la estación.

Haga clic para ver las observaciones y los pronósticos meteorológicos.

Para cambiar el mapa : haga clic en los botones verdes con una cruz de color negro para hacer un zoom, en el botón verde con un guión para alejar o en las flechas verdes para mapas adyacentes.


METAR-TAF: